createdAt,value
2019-04-04T00:02:02.533Z,1.13
2019-04-04T00:05:02.585Z,1.30
2019-04-04T00:07:56.157Z,1.23
2019-04-04T00:10:49.589Z,1.10
2019-04-04T00:13:37.034Z,1.40
2019-04-04T00:16:30.800Z,1.30
2019-04-04T00:19:17.965Z,1.20
2019-04-04T00:22:12.502Z,1.07
2019-04-04T00:24:59.921Z,1.20
2019-04-04T00:27:53.766Z,1.20
2019-04-04T00:30:48.404Z,1.10
2019-04-04T00:33:43.534Z,1.20
2019-04-04T00:36:33.749Z,1.10
2019-04-04T00:39:26.492Z,1.30
2019-04-04T00:42:20.394Z,1.20
2019-04-04T00:45:16.001Z,1.10
2019-04-04T00:48:03.689Z,1.20
2019-04-04T00:51:00.081Z,1.20
2019-04-04T00:53:47.061Z,1.30
2019-04-04T00:56:43.431Z,1.13
2019-04-04T00:59:30.838Z,0.83
2019-04-04T01:02:27.264Z,1.27
2019-04-04T01:05:20.207Z,1.23
2019-04-04T01:08:21.515Z,1.00
2019-04-04T01:11:09.098Z,1.03
2019-04-04T01:14:17.107Z,1.17
2019-04-04T01:17:04.823Z,1.10
2019-04-04T01:19:59.765Z,1.40
2019-04-04T01:22:47.131Z,1.03
2019-04-04T01:25:40.855Z,1.20
2019-04-04T01:28:29.748Z,1.23
2019-04-04T01:31:23.715Z,1.43
2019-04-04T01:34:10.780Z,1.00
2019-04-04T01:37:04.700Z,0.90
2019-04-04T01:39:52.224Z,1.10
2019-04-04T01:42:46.833Z,1.10
2019-04-04T01:45:43.748Z,1.50
2019-04-04T01:48:38.851Z,1.10
2019-04-04T01:51:26.359Z,1.17
2019-04-04T01:54:20.559Z,1.20
2019-04-04T01:57:10.072Z,0.90
2019-04-04T02:00:04.796Z,1.30
2019-04-04T02:02:52.499Z,0.87
2019-04-04T02:05:46.387Z,1.30
2019-04-04T02:08:42.989Z,1.30
2019-04-04T02:11:37.924Z,1.30
2019-04-04T02:14:26.637Z,1.10
2019-04-04T02:17:22.290Z,1.10
2019-04-04T02:20:09.857Z,1.10
2019-04-04T02:23:07.236Z,1.07
2019-04-04T02:25:56.067Z,1.10
2019-04-04T02:28:49.643Z,1.03
2019-04-04T02:31:41.177Z,1.40
2019-04-04T02:34:37.519Z,1.03
2019-04-04T02:37:23.440Z,1.20
2019-04-04T02:40:17.917Z,1.30
2019-04-04T02:43:06.827Z,0.90
2019-04-04T02:46:01.138Z,1.30
2019-04-04T02:48:58.407Z,1.00
2019-04-04T02:51:52.065Z,1.30
2019-04-04T02:54:39.516Z,1.10
2019-04-04T02:57:34.667Z,1.20
2019-04-04T03:00:26.403Z,1.00
2019-04-04T03:03:17.349Z,1.10
2019-04-04T03:06:14.494Z,1.00
2019-04-04T03:09:23.065Z,1.00
2019-04-04T03:12:07.537Z,1.10
2019-04-04T03:15:03.790Z,1.10
2019-04-04T03:17:51.331Z,0.73
2019-04-04T03:20:49.227Z,1.37
2019-04-04T03:23:35.335Z,0.97
2019-04-04T03:26:32.333Z,1.07
2019-04-04T03:29:19.706Z,1.20
2019-04-04T03:32:16.171Z,1.20
2019-04-04T03:35:02.258Z,1.27
2019-04-04T03:37:56.690Z,1.00
2019-04-04T03:40:44.256Z,1.00
2019-04-04T03:43:38.454Z,1.20
2019-04-04T03:46:25.776Z,1.20
2019-04-04T03:49:23.404Z,1.20
2019-04-04T03:52:15.173Z,0.93
2019-04-04T03:55:09.024Z,1.10
2019-04-04T03:57:57.819Z,1.20
2019-04-04T04:00:55.376Z,1.00
2019-04-04T04:03:44.351Z,1.13
2019-04-04T04:06:42.141Z,1.20
2019-04-04T04:09:34.624Z,1.10
2019-04-04T04:12:35.870Z,1.03
2019-04-04T04:15:23.073Z,1.40
2019-04-04T04:18:20.085Z,1.10
2019-04-04T04:21:09.764Z,1.03
2019-04-04T04:24:04.064Z,1.20
2019-04-04T04:26:51.602Z,0.93
2019-04-04T04:29:46.323Z,0.87
2019-04-04T04:32:37.106Z,1.10
2019-04-04T04:35:28.374Z,1.20
2019-04-04T04:38:15.965Z,0.93
2019-04-04T04:41:10.035Z,1.20
2019-04-04T04:43:57.073Z,1.17
2019-04-04T04:46:54.486Z,1.03
2019-04-04T04:49:41.998Z,1.20
2019-04-04T04:52:35.844Z,1.10
2019-04-04T04:55:30.523Z,1.23
2019-04-04T04:58:24.803Z,1.13
2019-04-04T05:01:12.008Z,1.33
2019-04-04T05:04:06.081Z,1.10
2019-04-04T05:06:53.522Z,1.20
2019-04-04T05:09:54.453Z,1.13
2019-04-04T05:12:42.091Z,1.17
2019-04-04T05:15:36.016Z,1.40
2019-04-04T05:18:23.394Z,1.17
2019-04-04T05:21:24.914Z,1.50
2019-04-04T05:24:06.479Z,0.80
2019-04-04T05:27:06.784Z,0.90
2019-04-04T05:29:54.611Z,1.00
2019-04-04T05:32:49.997Z,1.17
2019-04-04T05:35:37.833Z,0.80
2019-04-04T05:38:32.782Z,1.10
2019-04-04T05:41:20.092Z,0.80
2019-04-04T05:44:17.051Z,1.00
2019-04-04T05:47:04.518Z,0.70
2019-04-04T05:50:02.292Z,1.03
2019-04-04T05:52:49.925Z,1.10
2019-04-04T05:55:43.392Z,0.80
2019-04-04T05:58:37.260Z,1.00
2019-04-04T06:01:34.926Z,0.80
2019-04-04T06:04:21.459Z,0.93
2019-04-04T06:07:16.610Z,0.70
2019-04-04T06:10:14.093Z,1.00
2019-04-04T06:13:15.470Z,0.80
2019-04-04T06:16:04.209Z,0.90
2019-04-04T06:19:02.382Z,1.00
2019-04-04T06:21:50.542Z,0.77
2019-04-04T06:24:45.022Z,0.63
2019-04-04T06:27:32.524Z,0.80
2019-04-04T06:30:27.199Z,0.97
2019-04-04T06:33:14.398Z,0.73
2019-04-04T06:36:08.822Z,0.80
2019-04-04T06:38:55.964Z,0.67
2019-04-04T06:41:50.914Z,0.77
2019-04-04T06:44:38.295Z,0.80
2019-04-04T06:47:32.614Z,0.67
2019-04-04T06:50:20.266Z,0.57
2019-04-04T06:53:14.396Z,0.80
2019-04-04T06:56:01.578Z,0.87
2019-04-04T06:58:56.031Z,0.83
2019-04-04T07:01:52.054Z,1.10
2019-04-04T07:04:47.668Z,1.00
2019-04-04T07:07:35.144Z,0.80
2019-04-04T07:10:37.225Z,0.77
2019-04-04T07:13:41.762Z,0.70
2019-04-04T07:16:30.105Z,0.80
2019-04-04T07:19:17.744Z,1.10
2019-04-04T07:22:11.513Z,0.90
2019-04-04T07:25:01.133Z,1.00
2019-04-04T07:27:54.550Z,0.83
2019-04-04T07:30:42.193Z,0.80
2019-04-04T07:33:36.810Z,0.70
2019-04-04T07:36:26.272Z,0.70
2019-04-04T07:39:20.004Z,0.60
2019-04-04T07:42:07.721Z,0.70
2019-04-04T07:45:02.030Z,0.77
2019-04-04T07:47:49.183Z,0.67
2019-04-04T07:50:44.026Z,0.73
2019-04-04T07:53:34.256Z,0.90
2019-04-04T07:56:29.851Z,0.50
2019-04-04T07:59:17.197Z,0.67
2019-04-04T08:02:11.720Z,0.80
2019-04-04T08:05:07.619Z,0.90
2019-04-04T08:08:02.977Z,0.70
2019-04-04T08:10:59.103Z,0.50
2019-04-04T08:14:00.628Z,0.60
2019-04-04T08:16:48.504Z,0.60
2019-04-04T08:19:43.485Z,0.90
2019-04-04T08:22:33.654Z,0.70
2019-04-04T08:25:29.836Z,0.60
2019-04-04T08:28:17.335Z,0.33
2019-04-04T08:31:11.725Z,0.63
2019-04-04T08:33:59.309Z,0.67
2019-04-04T08:36:53.230Z,0.60
2019-04-04T08:39:43.481Z,0.80
2019-04-04T08:42:37.356Z,0.50
2019-04-04T08:45:24.823Z,0.57
2019-04-04T08:48:19.409Z,0.50
2019-04-04T08:51:06.608Z,0.57
2019-04-04T08:54:01.104Z,0.60
2019-04-04T08:56:48.850Z,0.60
2019-04-04T08:59:44.509Z,0.53
2019-04-04T09:02:31.802Z,0.60
2019-04-04T09:05:26.476Z,0.90
2019-04-04T09:08:23.914Z,0.53
2019-04-04T09:11:18.462Z,0.50
2019-04-04T09:14:12.745Z,0.80
2019-04-04T09:17:07.565Z,0.70
2019-04-04T09:19:55.019Z,0.67
2019-04-04T09:22:49.443Z,0.80
2019-04-04T09:25:37.104Z,0.77
2019-04-04T09:28:32.141Z,0.97
2019-04-04T09:31:19.261Z,0.70
2019-04-04T09:34:16.500Z,0.63
2019-04-04T09:37:03.769Z,0.63
2019-04-04T09:39:59.413Z,0.83
2019-04-04T09:42:46.781Z,0.60
2019-04-04T09:45:44.400Z,0.70
2019-04-04T09:48:32.129Z,0.70
2019-04-04T09:51:25.372Z,0.63
2019-04-04T09:54:12.843Z,0.73
2019-04-04T09:57:07.675Z,0.73
2019-04-04T09:59:55.361Z,0.57
2019-04-04T10:02:50.828Z,0.80
2019-04-04T10:05:40.036Z,0.80
2019-04-04T10:08:33.878Z,0.70
2019-04-04T10:11:28.736Z,0.90
2019-04-04T10:14:30.706Z,0.90
2019-04-04T10:17:19.341Z,0.67
2019-04-04T10:20:15.575Z,0.87
2019-04-04T10:23:04.660Z,0.70
2019-04-04T10:25:59.318Z,0.80
2019-04-04T10:28:46.535Z,0.70
2019-04-04T10:31:41.250Z,0.60
2019-04-04T10:34:30.318Z,0.63
2019-04-04T10:37:25.395Z,0.57
2019-04-04T10:40:16.093Z,0.70
2019-04-04T10:43:10.504Z,0.90
2019-04-04T10:45:58.259Z,0.80
2019-04-04T10:48:53.729Z,0.80
2019-04-04T10:51:41.180Z,0.70
2019-04-04T10:54:35.330Z,0.73
2019-04-04T10:57:26.246Z,0.50
2019-04-04T11:00:20.195Z,1.03
2019-04-04T11:03:07.845Z,0.90
2019-04-04T11:06:01.847Z,0.50
2019-04-04T11:08:49.368Z,0.60
2019-04-04T11:11:54.199Z,0.70
2019-04-04T11:15:04.121Z,0.37
2019-04-04T11:17:58.530Z,0.60
2019-04-04T11:20:45.821Z,0.77
2019-04-04T11:23:40.535Z,0.60
2019-04-04T11:26:27.884Z,0.50
2019-04-04T11:29:21.582Z,0.50
2019-04-04T11:32:10.715Z,0.40
2019-04-04T11:35:04.729Z,0.60
2019-04-04T11:37:52.659Z,0.67
2019-04-04T11:40:47.560Z,0.50
2019-04-04T11:43:35.317Z,0.63
2019-04-04T11:46:29.984Z,0.80
2019-04-04T11:49:17.707Z,0.67
2019-04-04T11:52:14.409Z,0.60
2019-04-04T11:55:02.789Z,0.70
2019-04-04T11:57:57.369Z,0.57
2019-04-04T12:00:46.416Z,0.70
2019-04-04T12:03:40.805Z,0.70
2019-04-04T12:06:28.572Z,0.60
2019-04-04T12:09:24.365Z,0.90
2019-04-04T12:12:12.058Z,0.43
2019-04-04T12:15:14.404Z,0.60
2019-04-04T12:18:05.130Z,0.40
2019-04-04T12:20:59.325Z,0.40
2019-04-04T12:23:46.620Z,0.63
2019-04-04T12:26:40.464Z,0.70
2019-04-04T12:29:29.325Z,0.63
2019-04-04T12:32:25.219Z,0.63
2019-04-04T12:35:12.453Z,0.57
2019-04-04T12:38:06.850Z,0.60
2019-04-04T12:40:54.362Z,0.60
2019-04-04T12:43:49.092Z,0.60
2019-04-04T12:46:36.787Z,0.70
2019-04-04T12:49:31.291Z,0.33
2019-04-04T12:52:18.750Z,0.50
2019-04-04T12:55:13.556Z,0.60
2019-04-04T12:58:00.754Z,0.50
2019-04-04T13:00:55.435Z,0.70
2019-04-04T13:03:42.640Z,0.80
2019-04-04T13:06:37.600Z,0.60
2019-04-04T13:09:25.294Z,0.73
2019-04-04T13:12:19.728Z,0.40
2019-04-04T13:15:14.227Z,0.60
2019-04-04T13:18:15.633Z,0.70
2019-04-04T13:21:03.363Z,0.50
2019-04-04T13:23:58.407Z,0.43
2019-04-04T13:26:45.898Z,0.40
2019-04-04T13:29:42.903Z,0.37
2019-04-04T13:32:30.222Z,0.73
2019-04-04T13:35:25.421Z,0.40
2019-04-04T13:38:13.006Z,0.80
2019-04-04T13:41:07.688Z,0.50
2019-04-04T13:43:55.175Z,0.40
2019-04-04T13:46:49.275Z,0.67
2019-04-04T13:49:36.876Z,0.43
2019-04-04T13:52:33.723Z,0.77
2019-04-04T13:55:21.241Z,0.40
2019-04-04T13:58:17.527Z,0.30
2019-04-04T14:01:05.255Z,0.60
2019-04-04T14:03:59.595Z,0.33
2019-04-04T14:06:50.170Z,0.37
2019-04-04T14:09:45.222Z,0.60
2019-04-04T14:12:33.008Z,0.70
2019-04-04T14:15:28.296Z,0.57
2019-04-04T14:18:22.387Z,0.40
2019-04-04T14:21:25.462Z,0.60
2019-04-04T14:24:14.326Z,0.40
2019-04-04T14:27:17.851Z,0.30
2019-04-04T14:30:08.703Z,0.60
2019-04-04T14:33:02.809Z,0.50
2019-04-04T14:35:50.574Z,0.47
2019-04-04T14:38:44.550Z,0.70
2019-04-04T14:41:32.375Z,1.00
2019-04-04T14:44:25.773Z,0.60
2019-04-04T14:47:13.957Z,0.67
2019-04-04T14:50:09.744Z,0.63
2019-04-04T14:52:57.997Z,0.30
2019-04-04T14:55:52.119Z,0.50
2019-04-04T14:58:39.469Z,0.60
2019-04-04T15:01:35.055Z,0.50
2019-04-04T15:04:24.705Z,0.50
2019-04-04T15:07:30.053Z,0.70
2019-04-04T15:10:20.714Z,0.80
2019-04-04T15:13:14.810Z,1.00
2019-04-04T15:16:12.113Z,0.97
2019-04-04T15:19:13.155Z,0.73
2019-04-04T15:22:00.460Z,0.50
2019-04-04T15:25:01.721Z,0.60
2019-04-04T15:27:48.986Z,0.63
2019-04-04T15:30:42.975Z,0.60
2019-04-04T15:33:30.525Z,0.50
2019-04-04T15:36:28.129Z,0.70
2019-04-04T15:39:16.070Z,0.50
2019-04-04T15:42:11.119Z,0.60
2019-04-04T15:44:58.975Z,0.60
2019-04-04T15:47:53.580Z,0.60
2019-04-04T15:50:41.141Z,0.30
2019-04-04T15:53:35.261Z,0.53
2019-04-04T15:56:23.737Z,0.40
2019-04-04T15:59:18.390Z,0.57
2019-04-04T16:02:05.767Z,0.70
2019-04-04T16:04:59.244Z,0.67
2019-04-04T16:07:46.783Z,0.60
2019-04-04T16:13:33.281Z,0.57
2019-04-04T16:16:26.707Z,0.60
2019-04-04T16:19:20.726Z,0.70
2019-04-04T16:22:21.572Z,0.40
2019-04-04T16:25:15.281Z,0.70
2019-04-04T16:28:09.845Z,0.70
2019-04-04T16:30:57.277Z,0.73
2019-04-04T16:33:51.313Z,0.70
2019-04-04T16:36:38.489Z,0.43
2019-04-04T16:39:35.148Z,0.80
2019-04-04T16:42:20.791Z,0.40
2019-04-04T16:45:15.063Z,0.63
2019-04-04T16:48:02.151Z,0.77
2019-04-04T16:50:56.951Z,0.73
2019-04-04T16:53:44.510Z,0.60
2019-04-04T16:56:38.780Z,0.50
2019-04-04T16:59:26.072Z,0.50
2019-04-04T17:02:22.696Z,0.40
2019-04-04T17:05:11.399Z,0.50
2019-04-04T17:08:05.618Z,0.40
2019-04-04T17:10:52.947Z,0.67
2019-04-04T17:13:46.937Z,0.27
2019-04-04T17:16:35.913Z,0.30
2019-04-04T17:19:31.047Z,0.50
2019-04-04T17:22:24.779Z,0.30
2019-04-04T17:25:19.069Z,0.20
2019-04-04T17:28:13.789Z,0.40
2019-04-04T17:31:08.628Z,0.40
2019-04-04T17:33:57.147Z,0.50
2019-04-04T17:36:51.773Z,0.30
2019-04-04T17:39:39.129Z,0.33
2019-04-04T17:42:34.593Z,0.30
2019-04-04T17:45:21.906Z,0.50
2019-04-04T17:48:16.906Z,0.57
2019-04-04T17:51:04.176Z,0.40
2019-04-04T17:53:59.196Z,0.30
2019-04-04T17:56:46.658Z,0.57
2019-04-04T17:59:42.635Z,0.43
2019-04-04T18:02:30.423Z,0.40
2019-04-04T18:05:25.139Z,0.80
2019-04-04T18:08:12.183Z,0.63
2019-04-04T18:11:06.186Z,0.60
2019-04-04T18:13:57.108Z,0.40
2019-04-04T18:16:52.782Z,0.60
2019-04-04T18:19:40.204Z,0.87
2019-04-04T18:22:41.066Z,0.60
2019-04-04T18:25:35.889Z,0.73
2019-04-04T18:28:39.371Z,0.50
2019-04-04T18:31:25.586Z,0.63
2019-04-04T18:34:20.130Z,0.80
2019-04-04T18:37:07.287Z,0.70
2019-04-04T18:40:02.164Z,0.37
2019-04-04T18:42:53.720Z,0.60
2019-04-04T18:45:45.619Z,0.50
2019-04-04T18:48:33.249Z,0.63
2019-04-04T18:51:27.629Z,0.83
2019-04-04T18:54:15.389Z,0.60
2019-04-04T18:57:09.537Z,0.60
2019-04-04T18:59:56.613Z,0.73
2019-04-04T19:02:51.373Z,0.77
2019-04-04T19:05:39.013Z,0.60
2019-04-04T19:08:33.569Z,0.67
2019-04-04T19:11:24.326Z,0.50
2019-04-04T19:14:18.001Z,0.87
2019-04-04T19:17:05.363Z,1.03
2019-04-04T19:20:02.440Z,0.70
2019-04-04T19:22:56.476Z,0.80
2019-04-04T19:25:57.358Z,0.60
2019-04-04T19:28:51.408Z,0.77
2019-04-04T19:31:45.174Z,0.60
2019-04-04T19:34:34.323Z,0.70
2019-04-04T19:37:28.617Z,0.80
2019-04-04T19:40:16.477Z,0.70
2019-04-04T19:43:17.988Z,1.00
2019-04-04T19:46:03.203Z,0.90
2019-04-04T19:48:57.126Z,0.73
2019-04-04T19:51:44.609Z,0.80
2019-04-04T19:54:39.010Z,0.80
2019-04-04T19:57:29.424Z,0.83
2019-04-04T20:00:23.280Z,0.90
2019-04-04T20:03:10.399Z,1.10
2019-04-04T20:06:04.877Z,1.30
2019-04-04T20:08:53.621Z,0.90
2019-04-04T20:11:48.436Z,0.90
2019-04-04T20:14:38.629Z,0.80
2019-04-04T20:17:32.586Z,1.30
2019-04-04T20:20:19.659Z,1.33
2019-04-04T20:23:20.996Z,0.93
2019-04-04T20:26:08.319Z,0.87
2019-04-04T20:29:02.298Z,1.00
2019-04-04T20:32:01.766Z,1.03
2019-04-04T20:34:56.198Z,0.87
2019-04-04T20:37:43.524Z,0.80
2019-04-04T20:40:39.726Z,0.80
2019-04-04T20:43:29.600Z,0.97
2019-04-04T20:46:23.354Z,1.20
2019-04-04T20:49:10.774Z,0.90
2019-04-04T20:52:04.805Z,0.83
2019-04-04T20:54:55.324Z,1.20
2019-04-04T20:57:49.994Z,0.93
2019-04-04T21:00:37.568Z,1.10
2019-04-04T21:03:31.519Z,0.90
2019-04-04T21:06:19.157Z,1.30
2019-04-04T21:09:30.324Z,1.10
2019-04-04T21:12:24.936Z,1.47
2019-04-04T21:15:20.414Z,1.20
2019-04-04T21:18:07.990Z,1.10
2019-04-04T21:21:02.228Z,0.80
2019-04-04T21:23:56.339Z,1.07
2019-04-04T21:26:57.085Z,1.10
2019-04-04T21:29:44.626Z,1.00
2019-04-04T21:32:47.455Z,1.30
2019-04-04T21:35:34.638Z,1.17
2019-04-04T21:38:29.468Z,1.27
2019-04-04T21:41:19.456Z,1.40
2019-04-04T21:44:14.683Z,1.23
2019-04-04T21:47:02.018Z,1.10
2019-04-04T21:49:56.331Z,1.13
2019-04-04T21:52:50.693Z,1.00
2019-04-04T21:55:44.744Z,1.23
2019-04-04T21:58:31.813Z,0.90
2019-04-04T22:01:25.702Z,1.30
2019-04-04T22:04:15.911Z,1.17
2019-04-04T22:07:12.832Z,1.40
2019-04-04T22:10:00.109Z,1.30
2019-04-04T22:12:54.228Z,1.23
2019-04-04T22:15:41.825Z,1.53
2019-04-04T22:18:36.387Z,1.10
2019-04-04T22:21:23.555Z,1.30
2019-04-04T22:24:17.662Z,1.40
2019-04-04T22:27:26.354Z,1.37
2019-04-04T22:30:20.718Z,1.10
2019-04-04T22:33:16.998Z,1.20
2019-04-04T22:36:10.756Z,1.20
2019-04-04T22:39:00.929Z,1.30
2019-04-04T22:41:55.150Z,1.50
2019-04-04T22:44:42.348Z,1.40
2019-04-04T22:47:39.284Z,1.47
2019-04-04T22:50:26.877Z,1.53
2019-04-04T22:53:23.742Z,1.40
2019-04-04T22:56:11.162Z,1.50
2019-04-04T22:59:04.850Z,1.23
2019-04-04T23:01:52.094Z,1.47
2019-04-04T23:04:46.552Z,1.20
2019-04-04T23:07:33.782Z,1.33
2019-04-04T23:10:28.411Z,1.30
2019-04-04T23:13:15.449Z,1.27
2019-04-04T23:16:09.527Z,1.57
2019-04-04T23:18:56.712Z,1.40
2019-04-04T23:21:50.944Z,1.47
2019-04-04T23:24:38.301Z,1.37
2019-04-04T23:27:39.225Z,1.43
2019-04-04T23:30:26.638Z,1.43
2019-04-04T23:33:21.309Z,1.30
2019-04-04T23:36:15.960Z,1.43
2019-04-04T23:39:09.518Z,1.30
2019-04-04T23:41:56.937Z,1.30
2019-04-04T23:45:00.718Z,1.20
2019-04-04T23:47:43.237Z,1.30
2019-04-04T23:50:35.968Z,1.40
2019-04-04T23:53:23.561Z,1.30
2019-04-04T23:56:17.674Z,1.20
2019-04-04T23:59:04.926Z,1.20
